Flight Track Log - Related Links

Times and Time Zones

All times are in EDT time to prevent confusion due to time zone crossing. See the SWA397 flight status page for this flight to view local times or setup timezone preferences in your user account.

Time Position Orientation Groundspeed Altitude Reporting Facility
EDT Latitude Longitude Course Direction KTS MPH feet Rate Location/Type
Wed 06:09:29 AM 42.3500 -71.0167 246° West 147 169 1,000  Level KA90
Wed 06:10:19 AM 42.3342 -71.0647 246° West 187 215 2,800 2,807 Climbing Boston Center
Wed 06:11:18 AM 42.2803 -71.1211 218° Southwest 248 285 6,100 3,580 Climbing Boston Center
Wed 06:12:18 AM 42.2667 -71.2172 259° West 263 303 9,900 2,800 Climbing Boston Center
Wed 06:13:18 AM 42.2572 -71.3253 263° West 289 333 11,700 2,613 Climbing Boston Center
Wed 06:14:22 AM 42.2444 -71.4658 263° West 345 397 15,300 3,295 Climbing Boston Center
Wed 06:15:20 AM 42.2342 -71.5969 264° West 349 402 18,400 3,153 Climbing Boston Center
Wed 06:16:20 AM 42.2281 -71.7250 266° West 358 412 21,500 3,756 Climbing Boston Center
Wed 06:17:23 AM 42.2217 -71.8381 266° West 302 348 26,100 2,927 Climbing Boston Center
Wed 06:18:23 AM 42.2147 -71.9492 265° West 298 343 27,500 1,160 Climbing Boston Center
Wed 06:19:22 AM 42.2119 -72.0739 268° West 332 382 28,400 1,650 Climbing Boston Center
Wed 06:20:23 AM 42.2072 -72.2019 267° West 339 390 30,800 2,293 Climbing Boston Center
Wed 06:21:25 AM 42.2028 -72.3225 267° West 328 377 33,100 2,000 Climbing Boston Center
Wed 06:22:26 AM 42.1992 -72.4344 268° West 308 354 34,900 1,180 Climbing Boston Center
Wed 06:23:27 AM 42.1953 -72.5517 267° West 308 354 35,500 537 Climbing Boston Center
Wed 06:24:29 AM 42.1917 -72.6725 268° West 315 362 36,000 244 Climbing Boston Center
Wed 06:25:30 AM 42.1861 -72.7953 267° West 322 371 36,000  Level Boston Center
Wed 06:26:30 AM 42.1819 -72.9172 267° West 322 371 36,000  Level Boston Center
Wed 06:27:29 AM 42.1775 -73.0375 267° West 322 371 36,000  Level Boston Center
Wed 06:28:31 AM 42.1722 -73.1594 267° West 322 371 36,000  Level Boston Center
Wed 06:29:32 AM 42.1669 -73.2814 267° West 322 371 36,000  Level Boston Center
Wed 06:30:33 AM 42.1617 -73.4011 267° West 323 372 36,000  Level Boston Center
Wed 06:31:35 AM 42.1547 -73.5478 266° West 326 375 36,000  Level Boston Center
Wed 06:32:33 AM 42.1492 -73.6719 267° West 329 379 36,000  Level Boston Center
Wed 06:33:34 AM 42.1442 -73.8006 267° West 331 381 36,000  Level Boston Center
Wed 06:34:37 AM 42.1372 -73.9278 266° West 338 389 36,000  Level Boston Center
Wed 06:35:37 AM 42.1317 -74.0558 267° West 340 391 36,000  Level Boston Center
Wed 06:36:36 AM 42.1244 -74.1847 266° West 342 394 36,000  Level Boston Center
Wed 06:37:40 AM 42.1186 -74.3142 267° West 344 396 36,000  Level Boston Center
Wed 06:38:40 AM 42.1114 -74.4503 266° West 346 398 36,000  Level Boston Center
Wed 06:39:41 AM 42.1044 -74.5808 266° West 347 399 36,000  Level Boston Center
Wed 06:40:41 AM 42.0978 -74.7133 266° West 352 405 36,000  Level Boston Center
Wed 06:41:44 AM 42.0903 -74.8450 266° West 353 406 36,000  Level Boston Center
Wed 06:42:45 AM 42.0819 -74.9792 265° West 357 411 36,000  Level Boston Center
Wed 06:43:46 AM 42.0750 -75.1125 266° West 357 411 36,000  Level Boston Center
Wed 06:44:46 AM 42.0661 -75.2508 265° West 358 412 36,000  Level Boston Center
Wed 06:45:47 AM 42.0394 -75.3764 254° West 355 409 36,000  Level Boston Center
Wed 06:46:29 AM 42.0011 -75.4706 241° Southwest 351 404 36,000  Level New York Center
Wed 06:47:29 AM 41.9528 -75.5869 241° Southwest 351 404 36,000  Level New York Center
Wed 06:48:29 AM 41.9042 -75.7033 241° Southwest 357 411 36,000  Level New York Center
Wed 06:49:31 AM 41.8556 -75.8194 241° Southwest 362 417 36,000  Level New York Center
Wed 06:50:30 AM 41.8089 -75.9356 242° Southwest 362 417 36,000  Level New York Center
Wed 06:51:29 AM 41.7581 -76.0539 240° Southwest 362 417 36,000  Level New York Center
Wed 06:52:29 AM 41.7089 -76.1697 240° Southwest 362 417 36,000  Level New York Center
Wed 06:53:29 AM 41.6578 -76.2906 241° Southwest 362 417 36,000  Level New York Center
Wed 06:54:29 AM 41.6083 -76.4111 241° Southwest 362 417 36,000  Level New York Center
Wed 06:55:29 AM 41.5589 -76.5289 241° Southwest 362 417 36,000  Level New York Center
Wed 06:56:29 AM 41.5097 -76.6383 239° Southwest 362 417 36,000  Level New York Center
Wed 06:57:29 AM 41.4600 -76.7586 241° Southwest 362 417 36,000  Level New York Center
Wed 06:58:29 AM 41.4058 -76.8783 239° Southwest 367 422 36,000  Level New York Center
Wed 06:59:29 AM 41.3539 -76.9981 240° Southwest 367 422 36,000  Level New York Center
Wed 07:00:29 AM 41.3017 -77.1175 240° Southwest 367 422 36,000  Level New York Center
Wed 07:01:29 AM 41.2494 -77.2369 240° Southwest 372 428 36,000  Level New York Center
Wed 07:02:29 AM 41.1992 -77.3561 241° Southwest 372 428 36,000  Level New York Center
Wed 07:03:06 AM 41.1622 -77.4369 239° Southwest 376 433 36,000  Level Cleveland Center
Wed 07:04:07 AM 41.1103 -77.5564 240° Southwest 376 433 36,000  Level Cleveland Center
Wed 07:05:09 AM 41.0569 -77.6775 240° Southwest 377 434 36,000  Level Cleveland Center
Wed 07:06:11 AM 41.0031 -77.7994 240° Southwest 380 437 36,000  Level Cleveland Center
Wed 07:07:12 AM 40.9486 -77.9211 239° Southwest 383 441 36,000  Level Cleveland Center
Wed 07:08:14 AM 40.8986 -78.0467 242° Southwest 383 441 36,000  Level Cleveland Center
Wed 07:09:16 AM 40.8603 -78.1800 249° West 386 444 36,000  Level Cleveland Center
Wed 07:10:18 AM 40.8111 -78.3411 248° West 390 449 36,000  Level Cleveland Center
Wed 07:11:19 AM 40.7689 -78.4767 248° West 395 455 36,000  Level Cleveland Center
Wed 07:12:21 AM 40.7281 -78.6114 248° West 396 456 36,000  Level Cleveland Center
Wed 07:13:23 AM 40.6858 -78.7461 248° West 397 457 36,000  Level Cleveland Center
Wed 07:14:25 AM 40.6436 -78.8817 248° West 398 458 36,000  Level Cleveland Center
Wed 07:15:26 AM 40.6025 -79.0119 247° West 399 459 36,000  Level Cleveland Center
Wed 07:16:28 AM 40.5664 -79.1536 251° West 401 461 36,000  Level Cleveland Center
Wed 07:17:30 AM 40.5547 -79.3233 265° West 401 461 36,000  Level Cleveland Center
Wed 07:18:31 AM 40.5442 -79.4706 265° West 404 465 36,000  Level Cleveland Center
Wed 07:19:33 AM 40.5322 -79.6178 264° West 405 466 36,000  Level Cleveland Center
Wed 07:20:35 AM 40.5206 -79.7653 264° West 408 470 36,000  Level Cleveland Center
Wed 07:21:37 AM 40.5089 -79.9131 264° West 408 470 36,000  Level Cleveland Center
Wed 07:22:38 AM 40.4972 -80.0664 264° West 410 472 36,000  Level Cleveland Center
Wed 07:23:40 AM 40.4850 -80.2158 264° West 411 473 36,000  Level Cleveland Center
Wed 07:24:42 AM 40.4714 -80.3800 264° West 411 473 36,000  Level Cleveland Center
Wed 07:25:44 AM 40.4592 -80.5289 264° West 411 473 36,000  Level Cleveland Center
Wed 07:26:45 AM 40.4472 -80.6797 264° West 414 476 36,000  Level Cleveland Center
Wed 07:27:47 AM 40.4317 -80.8600 264° West 415 478 36,000  Level Cleveland Center
Wed 07:28:49 AM 40.4186 -81.0100 264° West 416 479 36,000  Level Cleveland Center
Wed 07:29:51 AM 40.4036 -81.1628 263° West 421 484 36,000  Level Cleveland Center
Wed 07:30:52 AM 40.3900 -81.3136 263° West 421 484 36,000  Level Cleveland Center
Wed 07:31:54 AM 40.3767 -81.4678 264° West 417 480 36,000  Level Cleveland Center
Wed 07:32:56 AM 40.3619 -81.6225 263° West 420 483 36,000  Level Cleveland Center
Wed 07:33:58 AM 40.3467 -81.7758 263° West 421 484 36,000  Level Cleveland Center
Wed 07:34:44 AM 40.3356 -81.9039 264° West 419 482 36,000  Level Indianapolis Center
Wed 07:35:45 AM 40.3197 -82.0581 262° West 420 483 36,000  Level Indianapolis Center
Wed 07:36:46 AM 40.3050 -82.2128 263° West 420 483 36,000  Level Indianapolis Center
Wed 07:37:48 AM 40.2894 -82.3681 263° West 421 484 36,000  Level Indianapolis Center
Wed 07:38:49 AM 40.2731 -82.5236 262° West 423 487 36,000  Level Indianapolis Center
Wed 07:39:51 AM 40.2578 -82.6778 263° West 423 487 36,000  Level Indianapolis Center
Wed 07:40:52 AM 40.2394 -82.8472 262° West 423 487 36,000  Level Indianapolis Center
Wed 07:41:53 AM 40.2233 -82.9994 262° West 423 487 36,000  Level Indianapolis Center
Wed 07:42:55 AM 40.2075 -83.1519 262° West 424 488 36,000  Level Indianapolis Center
Wed 07:43:56 AM 40.1908 -83.3050 262° West 424 488 36,000  Level Indianapolis Center
Wed 07:44:58 AM 40.1739 -83.4569 262° West 425 489 36,000  Level Indianapolis Center
Wed 07:45:59 AM 40.1569 -83.6078 262° West 425 489 36,000  Level Indianapolis Center
Wed 07:47:01 AM 40.1375 -83.7897 262° West 425 489 36,000  Level Indianapolis Center
Wed 07:48:02 AM 40.1192 -83.9408 261° West 425 489 36,000  Level Indianapolis Center
Wed 07:49:04 AM 40.1025 -84.0919 262° West 425 489 36,000  Level Indianapolis Center
Wed 07:50:05 AM 40.0844 -84.2419 261° West 425 489 36,000  Level Indianapolis Center
Wed 07:51:07 AM 40.0669 -84.3917 261° West 423 487 36,000  Level Indianapolis Center
Wed 07:52:09 AM 40.0494 -84.5406 261° West 418 481 36,000  Level Indianapolis Center
Wed 07:53:10 AM 40.0306 -84.6892 261° West 418 481 36,000  Level Indianapolis Center
Wed 07:54:12 AM 40.0086 -84.8697 261° West 418 481 36,000  Level Indianapolis Center
Wed 07:55:13 AM 39.9919 -85.0033 261° West 419 482 36,000  Level Indianapolis Center
Wed 07:56:15 AM 39.9683 -85.1531 258° West 420 483 36,000  Level Indianapolis Center
Wed 07:57:17 AM 39.9339 -85.3333 256° West 425 489 36,000  Level Indianapolis Center
Wed 07:58:18 AM 39.9044 -85.4839 256° West 426 490 36,000  Level Indianapolis Center
Wed 07:59:20 AM 39.8764 -85.6353 256° West 429 494 36,000  Level Indianapolis Center
Wed 08:00:22 AM 39.8486 -85.7856 257° West 429 494 36,000  Level Indianapolis Center
Wed 08:01:23 AM 39.8194 -85.9356 256° West 429 494 36,000  Level Indianapolis Center
Wed 08:02:25 AM 39.7906 -86.0828 256° West 427 491 36,000  Level Indianapolis Center
Wed 08:03:27 AM 39.7625 -86.2294 256° West 426 490 36,000  Level Indianapolis Center
Wed 08:04:29 AM 39.7275 -86.4067 256° West 425 489 36,000  Level Indianapolis Center
Wed 08:05:30 AM 39.7011 -86.5381 255° West 424 488 36,000  Level Indianapolis Center
Wed 08:06:32 AM 39.6719 -86.6856 256° West 424 488 36,000  Level Indianapolis Center
Wed 08:07:34 AM 39.6419 -86.8336 255° West 424 488 36,000 -484 Level Indianapolis Center
Wed 08:08:36 AM 39.6061 -87.0094 255° West 424 488 35,000 -968 Descending Indianapolis Center
Wed 08:09:38 AM 39.5775 -87.1547 256° West 423 487 34,000 -484 Descending Indianapolis Center
Wed 08:10:40 AM 39.5472 -87.2989 255° West 419 482 34,000  Level Indianapolis Center
Wed 08:11:42 AM 39.5169 -87.4475 255° West 423 487 34,000  Level Indianapolis Center
Wed 08:12:43 AM 39.4853 -87.6019 255° West 437 503 34,000  Level Indianapolis Center
Wed 08:13:45 AM 39.4536 -87.7539 255° West 440 506 34,000 -726 Level Indianapolis Center
Wed 08:14:47 AM 39.4153 -87.9319 254° West 433 498 32,500 -1,935 Descending Indianapolis Center
Wed 08:15:49 AM 39.3839 -88.0806 255° West 432 497 30,000 -1,579 Descending Indianapolis Center
Wed 08:16:22 AM 39.3636 -88.1572 251° West 430 495 30,000  Level Kansas City Center
Wed 08:17:53 AM 39.3128 -88.3511 251° West 413 475 30,000  Level Indianapolis Center
Wed 08:18:25 AM 39.2881 -88.4394 250° West 418 481 30,000  Level Kansas City Center
Wed 08:19:26 AM 39.2489 -88.5847 251° West 422 486 30,000 -683 Level Kansas City Center
Wed 08:20:28 AM 39.2119 -88.7197 251° West 425 489 28,600 -2,098 Descending Kansas City Center
Wed 08:21:29 AM 39.1672 -88.8864 251° West 417 480 25,700 -2,459 Descending Kansas City Center
Wed 08:22:30 AM 39.1378 -89.0003 252° West 395 455 23,600 -2,195 Descending Kansas City Center
Wed 08:23:32 AM 39.1031 -89.1278 251° West 382 440 21,200 -2,439 Descending Kansas City Center
Wed 08:24:33 AM 39.0692 -89.2717 253° West 356 410 18,600 -2,262 Descending Kansas City Center
Wed 08:25:34 AM 39.0406 -89.3856 252° West 340 391 16,600 -2,146 Descending Kansas City Center
Wed 08:26:36 AM 39.0156 -89.5047 255° West 332 382 14,200 -2,244 Descending Kansas City Center
Wed 08:27:37 AM 38.9842 -89.6106 249° West 325 374 12,000 -2,049 Descending Kansas City Center
Wed 08:28:39 AM 38.9192 -89.6906 224° Southwest 324 373 10,000 -1,171 Descending Kansas City Center
Wed 08:29:40 AM 38.8594 -89.7661 225° Southwest 289 333 9,600 -978 Descending Kansas City Center
Wed 08:31:43 AM 38.7467 -89.9078 224° Southwest 282 325 7,000 -1,141 Descending Kansas City Center
Wed 08:32:44 AM 38.7050 -89.9839 235° Southwest 266 306 6,100 -976 Descending Kansas City Center
Wed 08:33:46 AM 38.6739 -90.0722 246° West 268 308 5,000 -1,073 Descending Kansas City Center
Wed 08:34:47 AM 38.6592 -90.1594 258° West 252 290 3,900 -978 Descending Kansas City Center
Wed 08:36:50 AM 38.7033 -90.2686 297° West 162 186 2,000 -876 Descending Kansas City Center
Wed 08:37:52 AM 38.7261 -90.3122 304° West 128 147 1,200 -677 Descending Kansas City Center
Wed 08:38:54 AM 38.7400 -90.3422 301° West 127 146 600 -581 Descending Kansas City Center
Wed 08:40:00 AM 38.7333 -90.3667 169° South  Level FlightAware Approximate
Wed 08:47:00 AM 38.7487 -90.3700 169° South  Level Estimated

Login

Don't have an account? Register now (free) for customized features, flight alerts, and more!